sensor_id;sensor_type;location;lat;lon;timestamp;temperature;humidity
19829;DHT22;10075;50.924;4.396;2023-02-24T00:00:04;7.80;99.90
19829;DHT22;10075;50.924;4.396;2023-02-24T00:02:58;7.60;99.90
19829;DHT22;10075;50.924;4.396;2023-02-24T00:05:32;7.50;99.90
19829;DHT22;10075;50.924;4.396;2023-02-24T00:07:59;7.50;99.90
19829;DHT22;10075;50.924;4.396;2023-02-24T00:10:26;7.50;99.90
19829;DHT22;10075;50.924;4.396;2023-02-24T00:12:53;7.50;99.90
19829;DHT22;10075;50.924;4.396;2023-02-24T00:15:20;7.50;99.90
19829;DHT22;10075;50.924;4.396;2023-02-24T00:17:47;7.60;99.90
19829;DHT22;10075;50.924;4.396;2023-02-24T00:20:16;7.60;99.90
19829;DHT22;10075;50.924;4.396;2023-02-24T00:22:43;7.40;99.90
19829;DHT22;10075;50.924;4.396;2023-02-24T00:25:10;7.50;99.90
19829;DHT22;10075;50.924;4.396;2023-02-24T00:27:39;7.50;99.90
19829;DHT22;10075;50.924;4.396;2023-02-24T00:30:08;7.50;99.90
19829;DHT22;10075;50.924;4.396;2023-02-24T00:32:36;7.50;99.90
19829;DHT22;10075;50.924;4.396;2023-02-24T00:35:04;7.50;99.90
19829;DHT22;10075;50.924;4.396;2023-02-24T00:37:33;7.60;99.90
19829;DHT22;10075;50.924;4.396;2023-02-24T00:40:00;7.40;99.90
19829;DHT22;10075;50.924;4.396;2023-02-24T00:42:33;7.50;99.90
19829;DHT22;10075;50.924;4.396;2023-02-24T00:45:00;7.60;99.90
19829;DHT22;10075;50.924;4.396;2023-02-24T00:47:36;7.50;99.90
19829;DHT22;10075;50.924;4.396;2023-02-24T00:50:05;7.50;99.90
19829;DHT22;10075;50.924;4.396;2023-02-24T00:52:34;7.40;99.90
19829;DHT22;10075;50.924;4.396;2023-02-24T00:55:02;7.20;99.90
19829;DHT22;10075;50.924;4.396;2023-02-24T00:57:39;7.00;99.90
19829;DHT22;10075;50.924;4.396;2023-02-24T01:00:10;7.10;99.90
19829;DHT22;10075;50.924;4.396;2023-02-24T01:02:39;7.30;99.90
19829;DHT22;10075;50.924;4.396;2023-02-24T01:05:08;7.40;99.90
19829;DHT22;10075;50.924;4.396;2023-02-24T01:07:37;7.30;99.90
19829;DHT22;10075;50.924;4.396;2023-02-24T01:10:05;7.30;99.90
19829;DHT22;10075;50.924;4.396;2023-02-24T01:12:33;7.20;99.90
19829;DHT22;10075;50.924;4.396;2023-02-24T01:15:15;7.20;99.90
19829;DHT22;10075;50.924;4.396;2023-02-24T01:17:42;7.30;99.90
19829;DHT22;10075;50.924;4.396;2023-02-24T01:20:11;7.40;99.90
19829;DHT22;10075;50.924;4.396;2023-02-24T01:22:45;7.30;99.90
19829;DHT22;10075;50.924;4.396;2023-02-24T01:25:12;7.20;99.90
19829;DHT22;10075;50.924;4.396;2023-02-24T01:27:39;7.10;99.90
19829;DHT22;10075;50.924;4.396;2023-02-24T01:30:08;7.10;99.90
19829;DHT22;10075;50.924;4.396;2023-02-24T01:32:38;7.10;99.90
19829;DHT22;10075;50.924;4.396;2023-02-24T01:35:06;7.00;99.90
19829;DHT22;10075;50.924;4.396;2023-02-24T01:37:33;7.00;99.90
19829;DHT22;10075;50.924;4.396;2023-02-24T01:40:02;7.00;99.90
19829;DHT22;10075;50.924;4.396;2023-02-24T01:42:42;7.00;99.90
19829;DHT22;10075;50.924;4.396;2023-02-24T01:45:18;7.00;99.90
19829;DHT22;10075;50.924;4.396;2023-02-24T01:47:46;7.10;99.90
19829;DHT22;10075;50.924;4.396;2023-02-24T01:50:15;7.10;99.90
19829;DHT22;10075;50.924;4.396;2023-02-24T01:52:47;7.10;99.90
19829;DHT22;10075;50.924;4.396;2023-02-24T01:55:19;7.30;99.90
19829;DHT22;10075;50.924;4.396;2023-02-24T01:57:49;7.40;99.90
19829;DHT22;10075;50.924;4.396;2023-02-24T02:00:18;7.40;99.90
19829;DHT22;10075;50.924;4.396;2023-02-24T02:03:06;7.30;99.90
19829;DHT22;10075;50.924;4.396;2023-02-24T02:05:37;7.40;99.90
19829;DHT22;10075;50.924;4.396;2023-02-24T02:08:04;7.30;99.90
19829;DHT22;10075;50.924;4.396;2023-02-24T02:10:35;7.10;99.90
19829;DHT22;10075;50.924;4.396;2023-02-24T02:13:04;7.10;99.90
19829;DHT22;10075;50.924;4.396;2023-02-24T02:15:36;7.30;99.90
19829;DHT22;10075;50.924;4.396;2023-02-24T02:18:13;7.30;99.90
19829;DHT22;10075;50.924;4.396;2023-02-24T02:21:25;7.20;99.90
19829;DHT22;10075;50.924;4.396;2023-02-24T02:24:09;7.10;99.90
19829;DHT22;10075;50.924;4.396;2023-02-24T02:30:06;7.10;99.90
19829;DHT22;10075;50.924;4.396;2023-02-24T02:32:53;7.20;99.90
19829;DHT22;10075;50.924;4.396;2023-02-24T02:35:31;7.30;99.90
19829;DHT22;10075;50.924;4.396;2023-02-24T02:38:07;7.40;99.90
19829;DHT22;10075;50.924;4.396;2023-02-24T02:40:38;7.40;99.90
19829;DHT22;10075;50.924;4.396;2023-02-24T02:43:11;7.10;99.90
19829;DHT22;10075;50.924;4.396;2023-02-24T02:45:45;7.10;99.90
19829;DHT22;10075;50.924;4.396;2023-02-24T02:48:15;7.20;99.90
19829;DHT22;10075;50.924;4.396;2023-02-24T02:50:50;7.10;99.90
19829;DHT22;10075;50.924;4.396;2023-02-24T02:53:25;7.40;99.90
19829;DHT22;10075;50.924;4.396;2023-02-24T02:55:58;7.30;99.90
19829;DHT22;10075;50.924;4.396;2023-02-24T02:58:29;7.40;99.90
19829;DHT22;10075;50.924;4.396;2023-02-24T03:01:00;7.40;99.90
19829;DHT22;10075;50.924;4.396;2023-02-24T03:03:33;7.30;99.90
19829;DHT22;10075;50.924;4.396;2023-02-24T03:06:06;7.30;99.90
19829;DHT22;10075;50.924;4.396;2023-02-24T03:08:38;7.40;99.90
19829;DHT22;10075;50.924;4.396;2023-02-24T03:11:08;7.30;99.90
19829;DHT22;10075;50.924;4.396;2023-02-24T03:13:40;7.20;99.90
19829;DHT22;10075;50.924;4.396;2023-02-24T03:16:09;7.40;99.90
19829;DHT22;10075;50.924;4.396;2023-02-24T03:18:43;7.40;99.90
19829;DHT22;10075;50.924;4.396;2023-02-24T03:21:20;7.50;99.90
19829;DHT22;10075;50.924;4.396;2023-02-24T03:23:53;7.50;99.90
19829;DHT22;10075;50.924;4.396;2023-02-24T03:26:23;7.40;99.90
19829;DHT22;10075;50.924;4.396;2023-02-24T03:28:57;7.30;99.90
19829;DHT22;10075;50.924;4.396;2023-02-24T03:31:30;7.20;99.90
19829;DHT22;10075;50.924;4.396;2023-02-24T03:34:03;7.10;99.90
19829;DHT22;10075;50.924;4.396;2023-02-24T03:36:33;7.20;99.90
19829;DHT22;10075;50.924;4.396;2023-02-24T03:39:00;7.30;99.90
19829;DHT22;10075;50.924;4.396;2023-02-24T03:41:34;7.20;99.90
19829;DHT22;10075;50.924;4.396;2023-02-24T03:44:04;7.20;99.90
19829;DHT22;10075;50.924;4.396;2023-02-24T03:46:34;7.20;99.90
19829;DHT22;10075;50.924;4.396;2023-02-24T03:49:05;7.20;99.90
19829;DHT22;10075;50.924;4.396;2023-02-24T03:51:35;7.00;99.90
19829;DHT22;10075;50.924;4.396;2023-02-24T03:54:13;6.80;99.90
19829;DHT22;10075;50.924;4.396;2023-02-24T03:56:48;6.50;99.90
19829;DHT22;10075;50.924;4.396;2023-02-24T03:59:33;6.50;99.90
19829;DHT22;10075;50.924;4.396;2023-02-24T04:02:09;6.50;99.90
19829;DHT22;10075;50.924;4.396;2023-02-24T04:04:44;6.60;99.90
19829;DHT22;10075;50.924;4.396;2023-02-24T04:07:18;7.00;99.90
19829;DHT22;10075;50.924;4.396;2023-02-24T04:09:56;7.10;99.90
19829;DHT22;10075;50.924;4.396;2023-02-24T04:12:33;7.10;99.90
19829;DHT22;10075;50.924;4.396;2023-02-24T04:15:04;7.30;99.90
19829;DHT22;10075;50.924;4.396;2023-02-24T04:17:38;7.40;99.90
19829;DHT22;10075;50.924;4.396;2023-02-24T04:20:10;7.50;99.90
19829;DHT22;10075;50.924;4.396;2023-02-24T04:22:44;7.30;99.90
19829;DHT22;10075;50.924;4.396;2023-02-24T04:25:15;7.40;99.90
19829;DHT22;10075;50.924;4.396;2023-02-24T04:27:45;7.40;99.90
19829;DHT22;10075;50.924;4.396;2023-02-24T04:30:14;7.60;99.90
19829;DHT22;10075;50.924;4.396;2023-02-24T04:32:41;7.60;99.90
19829;DHT22;10075;50.924;4.396;2023-02-24T04:35:12;7.50;99.90
19829;DHT22;10075;50.924;4.396;2023-02-24T04:37:40;7.50;99.90
19829;DHT22;10075;50.924;4.396;2023-02-24T04:40:10;7.50;99.90
19829;DHT22;10075;50.924;4.396;2023-02-24T04:42:37;7.50;99.90
19829;DHT22;10075;50.924;4.396;2023-02-24T04:45:11;7.50;99.90
19829;DHT22;10075;50.924;4.396;2023-02-24T04:47:38;7.50;99.90
19829;DHT22;10075;50.924;4.396;2023-02-24T04:50:08;7.50;99.90
19829;DHT22;10075;50.924;4.396;2023-02-24T04:52:36;7.50;99.90
19829;DHT22;10075;50.924;4.396;2023-02-24T04:55:06;7.40;99.90
19829;DHT22;10075;50.924;4.396;2023-02-24T04:57:35;7.40;99.90
19829;DHT22;10075;50.924;4.396;2023-02-24T05:00:04;7.40;99.90
19829;DHT22;10075;50.924;4.396;2023-02-24T05:02:45;7.40;99.90
19829;DHT22;10075;50.924;4.396;2023-02-24T05:05:14;7.40;99.90
19829;DHT22;10075;50.924;4.396;2023-02-24T05:07:41;7.30;99.90
19829;DHT22;10075;50.924;4.396;2023-02-24T05:10:14;7.40;99.90
19829;DHT22;10075;50.924;4.396;2023-02-24T05:12:41;7.20;99.90
19829;DHT22;10075;50.924;4.396;2023-02-24T05:15:10;7.10;99.90
19829;DHT22;10075;50.924;4.396;2023-02-24T05:17:38;7.10;99.90
19829;DHT22;10075;50.924;4.396;2023-02-24T05:20:07;7.20;99.90
19829;DHT22;10075;50.924;4.396;2023-02-24T05:23:00;7.30;99.90
19829;DHT22;10075;50.924;4.396;2023-02-24T05:25:30;7.20;99.90
19829;DHT22;10075;50.924;4.396;2023-02-24T05:28:02;7.20;99.90
19829;DHT22;10075;50.924;4.396;2023-02-24T05:30:29;7.10;99.90
19829;DHT22;10075;50.924;4.396;2023-02-24T05:32:56;7.20;99.90
19829;DHT22;10075;50.924;4.396;2023-02-24T05:35:24;7.30;99.90
19829;DHT22;10075;50.924;4.396;2023-02-24T05:37:51;7.10;99.90
19829;DHT22;10075;50.924;4.396;2023-02-24T05:40:19;7.00;99.90
19829;DHT22;10075;50.924;4.396;2023-02-24T05:42:50;6.90;99.90
19829;DHT22;10075;50.924;4.396;2023-02-24T05:45:18;6.70;99.90
19829;DHT22;10075;50.924;4.396;2023-02-24T05:47:45;6.50;99.90
19829;DHT22;10075;50.924;4.396;2023-02-24T05:50:13;6.40;99.90
19829;DHT22;10075;50.924;4.396;2023-02-24T05:52:41;6.50;99.90
19829;DHT22;10075;50.924;4.396;2023-02-24T05:55:10;6.50;99.90
19829;DHT22;10075;50.924;4.396;2023-02-24T05:57:38;6.60;99.90
19829;DHT22;10075;50.924;4.396;2023-02-24T06:00:08;6.80;99.90
19829;DHT22;10075;50.924;4.396;2023-02-24T06:02:40;6.70;99.90
19829;DHT22;10075;50.924;4.396;2023-02-24T06:05:16;6.70;99.90
19829;DHT22;10075;50.924;4.396;2023-02-24T06:07:56;6.60;99.90
19829;DHT22;10075;50.924;4.396;2023-02-24T06:10:31;6.70;99.90
19829;DHT22;10075;50.924;4.396;2023-02-24T06:13:00;6.80;99.90
19829;DHT22;10075;50.924;4.396;2023-02-24T06:15:28;6.90;99.90
19829;DHT22;10075;50.924;4.396;2023-02-24T06:17:56;6.90;99.90
19829;DHT22;10075;50.924;4.396;2023-02-24T06:20:26;6.90;99.90
19829;DHT22;10075;50.924;4.396;2023-02-24T06:22:55;6.80;99.90
19829;DHT22;10075;50.924;4.396;2023-02-24T06:25:23;6.80;99.90
19829;DHT22;10075;50.924;4.396;2023-02-24T06:27:51;6.90;99.90
19829;DHT22;10075;50.924;4.396;2023-02-24T06:30:20;6.70;99.90
19829;DHT22;10075;50.924;4.396;2023-02-24T06:32:49;6.60;99.90
19829;DHT22;10075;50.924;4.396;2023-02-24T06:35:17;6.40;99.90
19829;DHT22;10075;50.924;4.396;2023-02-24T06:37:44;6.20;99.90
19829;DHT22;10075;50.924;4.396;2023-02-24T06:40:11;6.10;99.90
19829;DHT22;10075;50.924;4.396;2023-02-24T06:42:45;5.80;99.90
19829;DHT22;10075;50.924;4.396;2023-02-24T06:45:13;5.70;99.90
19829;DHT22;10075;50.924;4.396;2023-02-24T06:47:40;5.70;99.90
19829;DHT22;10075;50.924;4.396;2023-02-24T06:50:10;5.90;99.90
19829;DHT22;10075;50.924;4.396;2023-02-24T06:52:38;5.90;99.90
19829;DHT22;10075;50.924;4.396;2023-02-24T06:55:05;5.80;99.90
19829;DHT22;10075;50.924;4.396;2023-02-24T06:57:53;5.80;99.90
19829;DHT22;10075;50.924;4.396;2023-02-24T07:00:25;5.80;99.90
19829;DHT22;10075;50.924;4.396;2023-02-24T07:03:03;5.80;99.90
19829;DHT22;10075;50.924;4.396;2023-02-24T07:05:42;5.70;99.90
19829;DHT22;10075;50.924;4.396;2023-02-24T07:08:18;5.40;99.90
19829;DHT22;10075;50.924;4.396;2023-02-24T07:10:51;5.40;99.90
19829;DHT22;10075;50.924;4.396;2023-02-24T07:13:18;5.50;99.90
19829;DHT22;10075;50.924;4.396;2023-02-24T07:15:45;5.60;99.90
19829;DHT22;10075;50.924;4.396;2023-02-24T07:18:14;5.70;99.90
19829;DHT22;10075;50.924;4.396;2023-02-24T07:20:43;5.80;99.90
19829;DHT22;10075;50.924;4.396;2023-02-24T07:23:12;5.90;99.90
19829;DHT22;10075;50.924;4.396;2023-02-24T07:25:39;6.10;99.90
19829;DHT22;10075;50.924;4.396;2023-02-24T07:28:08;6.20;99.90
19829;DHT22;10075;50.924;4.396;2023-02-24T07:30:36;6.10;99.90
19829;DHT22;10075;50.924;4.396;2023-02-24T07:33:04;6.00;99.90
19829;DHT22;10075;50.924;4.396;2023-02-24T07:35:31;6.00;99.90
19829;DHT22;10075;50.924;4.396;2023-02-24T07:38:01;6.10;99.90
19829;DHT22;10075;50.924;4.396;2023-02-24T07:40:30;6.20;99.90
19829;DHT22;10075;50.924;4.396;2023-02-24T07:42:59;6.30;99.90
19829;DHT22;10075;50.924;4.396;2023-02-24T07:45:26;6.50;99.90
19829;DHT22;10075;50.924;4.396;2023-02-24T07:47:54;6.70;99.90
19829;DHT22;10075;50.924;4.396;2023-02-24T07:50:21;6.80;99.90
19829;DHT22;10075;50.924;4.396;2023-02-24T07:52:48;6.80;99.90
19829;DHT22;10075;50.924;4.396;2023-02-24T07:55:17;6.90;99.90
19829;DHT22;10075;50.924;4.396;2023-02-24T07:57:46;6.80;99.90
19829;DHT22;10075;50.924;4.396;2023-02-24T08:00:15;6.70;99.90
19829;DHT22;10075;50.924;4.396;2023-02-24T08:02:46;6.70;99.90
19829;DHT22;10075;50.924;4.396;2023-02-24T08:05:15;6.60;99.90
19829;DHT22;10075;50.924;4.396;2023-02-24T08:07:42;6.50;99.90
19829;DHT22;10075;50.924;4.396;2023-02-24T08:10:15;6.30;99.90
19829;DHT22;10075;50.924;4.396;2023-02-24T08:12:52;6.30;99.90
19829;DHT22;10075;50.924;4.396;2023-02-24T08:15:27;6.10;99.90
19829;DHT22;10075;50.924;4.396;2023-02-24T08:17:59;5.90;99.90
19829;DHT22;10075;50.924;4.396;2023-02-24T08:20:28;5.80;99.90
19829;DHT22;10075;50.924;4.396;2023-02-24T08:23:01;5.80;99.90
19829;DHT22;10075;50.924;4.396;2023-02-24T08:25:31;5.70;99.90
19829;DHT22;10075;50.924;4.396;2023-02-24T08:28:05;5.90;99.90
19829;DHT22;10075;50.924;4.396;2023-02-24T08:30:37;6.00;99.90
19829;DHT22;10075;50.924;4.396;2023-02-24T08:33:05;6.10;99.90
19829;DHT22;10075;50.924;4.396;2023-02-24T08:35:35;6.40;99.90
19829;DHT22;10075;50.924;4.396;2023-02-24T08:38:04;6.60;99.90
19829;DHT22;10075;50.924;4.396;2023-02-24T08:40:34;6.60;99.90
19829;DHT22;10075;50.924;4.396;2023-02-24T08:43:19;6.70;99.90
19829;DHT22;10075;50.924;4.396;2023-02-24T08:45:57;6.70;99.90
19829;DHT22;10075;50.924;4.396;2023-02-24T08:48:27;6.90;99.90
19829;DHT22;10075;50.924;4.396;2023-02-24T08:51:05;6.80;99.90
19829;DHT22;10075;50.924;4.396;2023-02-24T08:53:32;7.10;99.90
19829;DHT22;10075;50.924;4.396;2023-02-24T08:56:01;7.20;99.90
19829;DHT22;10075;50.924;4.396;2023-02-24T08:58:36;7.40;99.90
19829;DHT22;10075;50.924;4.396;2023-02-24T09:01:08;7.50;99.90
19829;DHT22;10075;50.924;4.396;2023-02-24T09:03:44;7.40;99.90
19829;DHT22;10075;50.924;4.396;2023-02-24T09:06:13;7.40;99.90
19829;DHT22;10075;50.924;4.396;2023-02-24T09:08:43;7.50;99.90
19829;DHT22;10075;50.924;4.396;2023-02-24T09:11:12;7.50;99.90
19829;DHT22;10075;50.924;4.396;2023-02-24T09:13:43;7.70;99.90
19829;DHT22;10075;50.924;4.396;2023-02-24T09:16:18;7.90;99.90
19829;DHT22;10075;50.924;4.396;2023-02-24T09:18:48;8.10;99.90
19829;DHT22;10075;50.924;4.396;2023-02-24T09:21:36;7.80;99.90
19829;DHT22;10075;50.924;4.396;2023-02-24T09:24:31;7.80;99.90
19829;DHT22;10075;50.924;4.396;2023-02-24T09:26:58;7.90;99.90
19829;DHT22;10075;50.924;4.396;2023-02-24T09:29:27;8.40;99.90
19829;DHT22;10075;50.924;4.396;2023-02-24T09:32:01;8.50;99.90
19829;DHT22;10075;50.924;4.396;2023-02-24T09:34:33;8.50;99.90
19829;DHT22;10075;50.924;4.396;2023-02-24T09:37:01;8.60;99.90
19829;DHT22;10075;50.924;4.396;2023-02-24T09:39:30;8.60;99.90
19829;DHT22;10075;50.924;4.396;2023-02-24T09:42:19;8.60;99.90
19829;DHT22;10075;50.924;4.396;2023-02-24T09:45:05;8.70;99.90
19829;DHT22;10075;50.924;4.396;2023-02-24T09:47:39;8.80;99.90
19829;DHT22;10075;50.924;4.396;2023-02-24T09:50:25;9.00;99.90
19829;DHT22;10075;50.924;4.396;2023-02-24T09:53:04;8.80;99.90
19829;DHT22;10075;50.924;4.396;2023-02-24T09:55:46;8.80;99.90
19829;DHT22;10075;50.924;4.396;2023-02-24T09:58:32;8.80;99.90
19829;DHT22;10075;50.924;4.396;2023-02-24T10:01:13;8.60;99.90
19829;DHT22;10075;50.924;4.396;2023-02-24T10:03:52;8.50;99.90
19829;DHT22;10075;50.924;4.396;2023-02-24T10:06:30;8.30;99.90
19829;DHT22;10075;50.924;4.396;2023-02-24T10:09:05;8.30;99.90
19829;DHT22;10075;50.924;4.396;2023-02-24T10:11:38;8.20;99.90
19829;DHT22;10075;50.924;4.396;2023-02-24T10:14:20;8.30;99.90
19829;DHT22;10075;50.924;4.396;2023-02-24T10:16:54;8.30;99.90
19829;DHT22;10075;50.924;4.396;2023-02-24T10:19:38;8.50;99.90
19829;DHT22;10075;50.924;4.396;2023-02-24T10:22:17;8.60;99.90
19829;DHT22;10075;50.924;4.396;2023-02-24T10:25:00;8.70;99.90
19829;DHT22;10075;50.924;4.396;2023-02-24T10:27:46;8.70;99.90
19829;DHT22;10075;50.924;4.396;2023-02-24T10:30:30;9.00;99.90
19829;DHT22;10075;50.924;4.396;2023-02-24T10:33:17;9.20;99.90
19829;DHT22;10075;50.924;4.396;2023-02-24T10:35:45;9.20;99.90
19829;DHT22;10075;50.924;4.396;2023-02-24T10:38:12;9.20;99.90
19829;DHT22;10075;50.924;4.396;2023-02-24T10:40:44;9.10;99.90
19829;DHT22;10075;50.924;4.396;2023-02-24T10:43:15;8.80;99.90
19829;DHT22;10075;50.924;4.396;2023-02-24T10:45:45;8.70;99.90
19829;DHT22;10075;50.924;4.396;2023-02-24T10:48:19;8.30;99.90
19829;DHT22;10075;50.924;4.396;2023-02-24T10:50:50;8.20;99.90
19829;DHT22;10075;50.924;4.396;2023-02-24T10:53:22;8.30;99.90
19829;DHT22;10075;50.924;4.396;2023-02-24T10:56:02;8.60;99.90
19829;DHT22;10075;50.924;4.396;2023-02-24T10:59:00;8.50;99.90
19829;DHT22;10075;50.924;4.396;2023-02-24T11:01:42;8.40;99.90
19829;DHT22;10075;50.924;4.396;2023-02-24T11:04:21;8.10;99.90
19829;DHT22;10075;50.924;4.396;2023-02-24T11:07:02;8.20;99.90
19829;DHT22;10075;50.924;4.396;2023-02-24T11:09:34;8.20;99.90
19829;DHT22;10075;50.924;4.396;2023-02-24T11:12:13;8.10;99.90
19829;DHT22;10075;50.924;4.396;2023-02-24T11:15:02;8.30;99.90
19829;DHT22;10075;50.924;4.396;2023-02-24T11:17:50;8.40;99.90
19829;DHT22;10075;50.924;4.396;2023-02-24T11:20:29;8.20;99.90
19829;DHT22;10075;50.924;4.396;2023-02-24T11:22:56;8.20;99.90
19829;DHT22;10075;50.924;4.396;2023-02-24T11:25:25;8.20;99.90
19829;DHT22;10075;50.924;4.396;2023-02-24T11:27:53;8.50;99.90
19829;DHT22;10075;50.924;4.396;2023-02-24T11:30:29;8.60;99.90
19829;DHT22;10075;50.924;4.396;2023-02-24T11:33:25;8.40;99.90
19829;DHT22;10075;50.924;4.396;2023-02-24T11:36:01;8.70;99.90
19829;DHT22;10075;50.924;4.396;2023-02-24T11:38:38;9.10;99.90
19829;DHT22;10075;50.924;4.396;2023-02-24T11:41:11;9.10;99.90
19829;DHT22;10075;50.924;4.396;2023-02-24T11:43:44;9.10;99.90
19829;DHT22;10075;50.924;4.396;2023-02-24T11:46:18;9.20;99.90
19829;DHT22;10075;50.924;4.396;2023-02-24T11:48:50;9.40;99.90
19829;DHT22;10075;50.924;4.396;2023-02-24T11:51:25;9.20;99.90
19829;DHT22;10075;50.924;4.396;2023-02-24T11:53:55;8.90;99.90
19829;DHT22;10075;50.924;4.396;2023-02-24T11:56:26;8.90;99.90
19829;DHT22;10075;50.924;4.396;2023-02-24T11:58:59;8.90;99.90
19829;DHT22;10075;50.924;4.396;2023-02-24T12:01:31;9.10;99.90
19829;DHT22;10075;50.924;4.396;2023-02-24T12:04:08;9.20;99.90
19829;DHT22;10075;50.924;4.396;2023-02-24T12:06:41;9.70;99.90
19829;DHT22;10075;50.924;4.396;2023-02-24T12:09:14;9.40;99.90
19829;DHT22;10075;50.924;4.396;2023-02-24T12:11:48;9.10;99.90
19829;DHT22;10075;50.924;4.396;2023-02-24T12:14:24;8.80;99.90
19829;DHT22;10075;50.924;4.396;2023-02-24T12:16:59;8.60;99.90
19829;DHT22;10075;50.924;4.396;2023-02-24T12:19:32;8.90;99.90
19829;DHT22;10075;50.924;4.396;2023-02-24T12:22:09;9.30;99.90
19829;DHT22;10075;50.924;4.396;2023-02-24T12:24:40;9.60;99.90
19829;DHT22;10075;50.924;4.396;2023-02-24T12:27:17;9.70;99.90
19829;DHT22;10075;50.924;4.396;2023-02-24T12:30:03;9.70;99.90
19829;DHT22;10075;50.924;4.396;2023-02-24T12:32:41;9.60;99.90
19829;DHT22;10075;50.924;4.396;2023-02-24T12:35:16;9.50;99.90
19829;DHT22;10075;50.924;4.396;2023-02-24T12:37:57;9.60;99.90
19829;DHT22;10075;50.924;4.396;2023-02-24T12:40:31;10.20;99.90
19829;DHT22;10075;50.924;4.396;2023-02-24T12:43:11;10.00;99.90
19829;DHT22;10075;50.924;4.396;2023-02-24T12:45:47;10.20;99.90
19829;DHT22;10075;50.924;4.396;2023-02-24T12:48:34;10.00;99.90
19829;DHT22;10075;50.924;4.396;2023-02-24T12:51:07;10.50;99.90
19829;DHT22;10075;50.924;4.396;2023-02-24T12:53:43;10.50;99.90
19829;DHT22;10075;50.924;4.396;2023-02-24T12:56:16;10.50;99.90
19829;DHT22;10075;50.924;4.396;2023-02-24T12:58:48;10.60;99.90
19829;DHT22;10075;50.924;4.396;2023-02-24T13:01:22;10.70;99.90
19829;DHT22;10075;50.924;4.396;2023-02-24T13:04:05;10.60;99.90
19829;DHT22;10075;50.924;4.396;2023-02-24T13:06:45;10.30;99.90
19829;DHT22;10075;50.924;4.396;2023-02-24T13:09:22;10.40;99.90
19829;DHT22;10075;50.924;4.396;2023-02-24T13:11:56;10.30;99.90
19829;DHT22;10075;50.924;4.396;2023-02-24T13:14:27;10.30;99.90
19829;DHT22;10075;50.924;4.396;2023-02-24T13:17:17;10.60;99.90
19829;DHT22;10075;50.924;4.396;2023-02-24T13:19:46;10.80;99.90
19829;DHT22;10075;50.924;4.396;2023-02-24T13:22:21;10.60;99.90
19829;DHT22;10075;50.924;4.396;2023-02-24T13:24:58;10.70;99.90
19829;DHT22;10075;50.924;4.396;2023-02-24T13:27:27;10.50;99.90
19829;DHT22;10075;50.924;4.396;2023-02-24T13:29:56;10.60;99.90
19829;DHT22;10075;50.924;4.396;2023-02-24T13:32:27;10.20;99.90
19829;DHT22;10075;50.924;4.396;2023-02-24T13:34:58;10.30;99.90
19829;DHT22;10075;50.924;4.396;2023-02-24T13:37:28;10.30;99.90
19829;DHT22;10075;50.924;4.396;2023-02-24T13:39:56;10.20;99.90
19829;DHT22;10075;50.924;4.396;2023-02-24T13:42:25;9.90;99.90
19829;DHT22;10075;50.924;4.396;2023-02-24T13:44:53;9.60;99.90
19829;DHT22;10075;50.924;4.396;2023-02-24T13:47:40;9.50;99.90
19829;DHT22;10075;50.924;4.396;2023-02-24T13:50:20;9.70;99.90
19829;DHT22;10075;50.924;4.396;2023-02-24T13:53:06;9.90;99.90
19829;DHT22;10075;50.924;4.396;2023-02-24T13:55:48;9.90;99.90
19829;DHT22;10075;50.924;4.396;2023-02-24T13:58:33;9.70;99.90
19829;DHT22;10075;50.924;4.396;2023-02-24T14:01:08;9.20;99.90
19829;DHT22;10075;50.924;4.396;2023-02-24T14:03:38;9.10;99.90
19829;DHT22;10075;50.924;4.396;2023-02-24T14:06:06;9.50;99.90
19829;DHT22;10075;50.924;4.396;2023-02-24T14:08:42;9.70;99.90
19829;DHT22;10075;50.924;4.396;2023-02-24T14:11:14;9.40;99.90
19829;DHT22;10075;50.924;4.396;2023-02-24T14:13:44;9.40;99.90
19829;DHT22;10075;50.924;4.396;2023-02-24T14:16:17;9.30;99.90
19829;DHT22;10075;50.924;4.396;2023-02-24T14:18:52;9.40;99.90
19829;DHT22;10075;50.924;4.396;2023-02-24T14:21:20;9.20;99.90
19829;DHT22;10075;50.924;4.396;2023-02-24T14:23:54;9.20;99.90
19829;DHT22;10075;50.924;4.396;2023-02-24T14:26:23;9.30;99.90
19829;DHT22;10075;50.924;4.396;2023-02-24T14:28:54;9.40;99.90
19829;DHT22;10075;50.924;4.396;2023-02-24T14:31:22;9.30;99.90
19829;DHT22;10075;50.924;4.396;2023-02-24T14:33:55;9.50;99.90
19829;DHT22;10075;50.924;4.396;2023-02-24T14:36:26;9.40;99.90
19829;DHT22;10075;50.924;4.396;2023-02-24T14:39:08;9.40;99.90
19829;DHT22;10075;50.924;4.396;2023-02-24T14:41:40;9.60;99.90
19829;DHT22;10075;50.924;4.396;2023-02-24T14:44:22;9.60;99.90
19829;DHT22;10075;50.924;4.396;2023-02-24T14:46:50;9.50;99.90
19829;DHT22;10075;50.924;4.396;2023-02-24T14:49:20;9.40;99.90
19829;DHT22;10075;50.924;4.396;2023-02-24T14:51:51;9.30;99.90
19829;DHT22;10075;50.924;4.396;2023-02-24T14:54:27;8.90;99.90
19829;DHT22;10075;50.924;4.396;2023-02-24T14:57:00;8.80;99.90
19829;DHT22;10075;50.924;4.396;2023-02-24T14:59:31;8.70;99.90
19829;DHT22;10075;50.924;4.396;2023-02-24T15:02:00;8.90;99.90
19829;DHT22;10075;50.924;4.396;2023-02-24T15:04:33;9.10;99.90
19829;DHT22;10075;50.924;4.396;2023-02-24T15:07:03;9.00;99.90
19829;DHT22;10075;50.924;4.396;2023-02-24T15:09:34;9.20;99.90
19829;DHT22;10075;50.924;4.396;2023-02-24T15:12:19;8.90;99.90
19829;DHT22;10075;50.924;4.396;2023-02-24T15:14:51;9.10;99.90
19829;DHT22;10075;50.924;4.396;2023-02-24T15:17:20;9.10;99.90
19829;DHT22;10075;50.924;4.396;2023-02-24T15:19:48;8.90;99.90
19829;DHT22;10075;50.924;4.396;2023-02-24T15:22:22;9.00;99.90
19829;DHT22;10075;50.924;4.396;2023-02-24T15:24:50;9.00;99.90
19829;DHT22;10075;50.924;4.396;2023-02-24T15:27:25;9.00;99.90
19829;DHT22;10075;50.924;4.396;2023-02-24T15:30:01;9.00;99.90
19829;DHT22;10075;50.924;4.396;2023-02-24T15:32:31;9.10;99.90
19829;DHT22;10075;50.924;4.396;2023-02-24T15:34:59;9.10;99.90
19829;DHT22;10075;50.924;4.396;2023-02-24T15:37:28;9.10;99.90
19829;DHT22;10075;50.924;4.396;2023-02-24T15:40:04;9.00;99.90
19829;DHT22;10075;50.924;4.396;2023-02-24T15:42:34;9.00;99.90
19829;DHT22;10075;50.924;4.396;2023-02-24T15:45:02;8.90;99.90
19829;DHT22;10075;50.924;4.396;2023-02-24T15:47:40;8.80;99.90
19829;DHT22;10075;50.924;4.396;2023-02-24T15:50:08;8.90;99.90
19829;DHT22;10075;50.924;4.396;2023-02-24T15:52:36;8.80;99.90
19829;DHT22;10075;50.924;4.396;2023-02-24T15:55:04;8.90;99.90
19829;DHT22;10075;50.924;4.396;2023-02-24T15:57:33;8.90;99.90
19829;DHT22;10075;50.924;4.396;2023-02-24T16:00:00;9.10;99.90
19829;DHT22;10075;50.924;4.396;2023-02-24T16:02:32;8.90;99.90
19829;DHT22;10075;50.924;4.396;2023-02-24T16:04:59;9.00;99.90
19829;DHT22;10075;50.924;4.396;2023-02-24T16:07:29;9.20;99.90
19829;DHT22;10075;50.924;4.396;2023-02-24T16:09:58;9.40;99.90
19829;DHT22;10075;50.924;4.396;2023-02-24T16:12:28;9.30;99.90
19829;DHT22;10075;50.924;4.396;2023-02-24T16:14:58;9.40;99.90
19829;DHT22;10075;50.924;4.396;2023-02-24T16:17:31;9.10;99.90
19829;DHT22;10075;50.924;4.396;2023-02-24T16:19:59;9.10;99.90
19829;DHT22;10075;50.924;4.396;2023-02-24T16:22:26;8.90;99.90